YEDH weather

CLOSED Meredith Airport
Victoria, Australia

Public forecast

Using degrees Celsius for public forecast. Weather courtesy of forecast.io.

METAR (pilot weather report)

Closest report is Avalon Airport, 20.5 nm (38.0 km) ESE. Retrieved 2019/03/23 08:00 UTC (5 minutes ago):

YMAV 230800Z AUTO 19009KT 9999 // NCD 21/17 Q1007 RF00.0/001.0

TAF (pilot weather forecast)

Forecast is more than 12 hours old.

Closest forecast is Avalon Airport, 20.5 nm (38.0 km) ESE. Retrieved 2019/03/22 00:00 UTC (1 day ago):

TAF YMAV 222316Z 2300/2324 01014KT 9999 -SHRA NSC FM230300 33014KT CAVOK FM230700 19015KT 9999 -SHRA FEW030 SCT040 FM231000 26008KT 9999 FEW020 BKN030 FM231600 34008KT 9999 FEW020